sensor_id;sensor_type;location;lat;lon;timestamp;pressure;altitude;pressure_sealevel;temperature;humidity
78317;BME280;67572;50.930;18.276;2024-03-25T00:01:57;97546.19;;;4.23;76.10
78317;BME280;67572;50.930;18.276;2024-03-25T00:04:59;97538.53;;;4.20;76.46
78317;BME280;67572;50.930;18.276;2024-03-25T00:08:01;97540.75;;;4.39;75.93
78317;BME280;67572;50.930;18.276;2024-03-25T00:11:03;97537.78;;;4.56;75.17
78317;BME280;67572;50.930;18.276;2024-03-25T00:14:05;97538.50;;;4.58;74.66
78317;BME280;67572;50.930;18.276;2024-03-25T00:17:07;97530.25;;;4.76;74.65
78317;BME280;67572;50.930;18.276;2024-03-25T00:20:13;97531.66;;;4.68;74.11
78317;BME280;67572;50.930;18.276;2024-03-25T00:23:16;97528.16;;;4.81;73.23
78317;BME280;67572;50.930;18.276;2024-03-25T00:26:18;97527.47;;;5.03;72.69
78317;BME280;67572;50.930;18.276;2024-03-25T00:29:19;97527.50;;;5.26;71.96
78317;BME280;67572;50.930;18.276;2024-03-25T00:32:22;97519.25;;;5.31;71.49
78317;BME280;67572;50.930;18.276;2024-03-25T00:35:23;97522.28;;;5.38;71.93
78317;BME280;67572;50.930;18.276;2024-03-25T00:38:26;97513.91;;;4.96;73.16
78317;BME280;67572;50.930;18.276;2024-03-25T00:41:27;97519.28;;;4.94;73.30
78317;BME280;67572;50.930;18.276;2024-03-25T00:44:30;97512.06;;;5.33;72.33
78317;BME280;67572;50.930;18.276;2024-03-25T00:47:32;97507.75;;;5.08;72.35
78317;BME280;67572;50.930;18.276;2024-03-25T00:50:34;97507.53;;;5.11;72.26
78317;BME280;67572;50.930;18.276;2024-03-25T00:53:37;97508.41;;;4.62;73.59
78317;BME280;67572;50.930;18.276;2024-03-25T00:56:38;97505.13;;;4.71;73.29
78317;BME280;67572;50.930;18.276;2024-03-25T00:59:41;97499.09;;;5.06;72.56
78317;BME280;67572;50.930;18.276;2024-03-25T01:02:43;97499.47;;;5.25;72.08
78317;BME280;67572;50.930;18.276;2024-03-25T01:05:45;97495.31;;;4.73;73.23
78317;BME280;67572;50.930;18.276;2024-03-25T01:08:47;97490.84;;;4.50;74.89
78317;BME280;67572;50.930;18.276;2024-03-25T01:11:49;97496.69;;;4.66;74.60
78317;BME280;67572;50.930;18.276;2024-03-25T01:14:51;97494.28;;;4.76;74.16
78317;BME280;67572;50.930;18.276;2024-03-25T01:17:53;97490.53;;;4.42;75.03
78317;BME280;67572;50.930;18.276;2024-03-25T01:20:54;97486.94;;;4.43;75.55
78317;BME280;67572;50.930;18.276;2024-03-25T01:23:57;97487.28;;;4.38;76.29
78317;BME280;67572;50.930;18.276;2024-03-25T01:26:58;97487.34;;;4.62;75.26
78317;BME280;67572;50.930;18.276;2024-03-25T01:30:00;97486.88;;;4.81;74.83
78317;BME280;67572;50.930;18.276;2024-03-25T01:33:04;97484.91;;;4.72;75.10
78317;BME280;67572;50.930;18.276;2024-03-25T01:36:07;97481.41;;;4.84;74.42
78317;BME280;67572;50.930;18.276;2024-03-25T01:39:09;97491.44;;;4.66;74.59
78317;BME280;67572;50.930;18.276;2024-03-25T01:42:11;97487.22;;;4.77;74.86
78317;BME280;67572;50.930;18.276;2024-03-25T01:45:14;97490.78;;;4.76;74.76
78317;BME280;67572;50.930;18.276;2024-03-25T01:48:17;97487.16;;;4.89;74.71
78317;BME280;67572;50.930;18.276;2024-03-25T01:51:20;97489.09;;;4.74;75.76
78317;BME280;67572;50.930;18.276;2024-03-25T01:54:24;97483.06;;;4.49;75.77
78317;BME280;67572;50.930;18.276;2024-03-25T01:57:26;97488.13;;;4.76;75.87
78317;BME280;67572;50.930;18.276;2024-03-25T02:00:28;97483.06;;;4.49;75.46
78317;BME280;67572;50.930;18.276;2024-03-25T02:03:30;97479.22;;;4.65;76.04
78317;BME280;67572;50.930;18.276;2024-03-25T02:06:34;97479.75;;;4.70;75.03
78317;BME280;67572;50.930;18.276;2024-03-25T02:09:38;97483.78;;;5.00;74.41
78317;BME280;67572;50.930;18.276;2024-03-25T02:12:42;97479.94;;;4.80;74.35
78317;BME280;67572;50.930;18.276;2024-03-25T02:15:43;97477.97;;;4.58;75.32
78317;BME280;67572;50.930;18.276;2024-03-25T02:18:46;97470.25;;;5.05;73.56
78317;BME280;67572;50.930;18.276;2024-03-25T02:21:48;97476.44;;;5.16;73.29
78317;BME280;67572;50.930;18.276;2024-03-25T02:24:52;97467.69;;;5.16;72.71
78317;BME280;67572;50.930;18.276;2024-03-25T02:27:54;97472.06;;;4.67;73.00
78317;BME280;67572;50.930;18.276;2024-03-25T02:30:56;97480.78;;;4.68;73.50
78317;BME280;67572;50.930;18.276;2024-03-25T02:33:58;97477.06;;;4.83;73.49
78317;BME280;67572;50.930;18.276;2024-03-25T02:37:00;97483.25;;;4.58;74.06
78317;BME280;67572;50.930;18.276;2024-03-25T02:40:03;97481.88;;;4.53;74.68
78317;BME280;67572;50.930;18.276;2024-03-25T02:43:06;97487.53;;;4.72;75.14
78317;BME280;67572;50.930;18.276;2024-03-25T02:46:08;97478.22;;;4.55;75.31
78317;BME280;67572;50.930;18.276;2024-03-25T02:49:10;97484.50;;;4.53;75.22
78317;BME280;67572;50.930;18.276;2024-03-25T02:52:13;97487.75;;;4.69;75.98
78317;BME280;67572;50.930;18.276;2024-03-25T02:55:15;97486.81;;;4.57;76.17
78317;BME280;67572;50.930;18.276;2024-03-25T02:58:17;97491.56;;;4.65;75.81
78317;BME280;67572;50.930;18.276;2024-03-25T03:01:19;97489.78;;;4.89;75.66
78317;BME280;67572;50.930;18.276;2024-03-25T03:04:21;97483.25;;;4.58;76.20
78317;BME280;67572;50.930;18.276;2024-03-25T03:07:23;97490.22;;;4.83;75.52
78317;BME280;67572;50.930;18.276;2024-03-25T03:10:24;97483.13;;;5.20;74.70
78317;BME280;67572;50.930;18.276;2024-03-25T03:13:27;97483.66;;;5.25;73.69
78317;BME280;67572;50.930;18.276;2024-03-25T03:16:28;97494.34;;;5.35;73.22
78317;BME280;67572;50.930;18.276;2024-03-25T03:19:31;97483.28;;;5.06;74.55
78317;BME280;67572;50.930;18.276;2024-03-25T03:22:33;97484.81;;;4.97;75.43
78317;BME280;67572;50.930;18.276;2024-03-25T03:25:35;97491.03;;;4.96;75.91
78317;BME280;67572;50.930;18.276;2024-03-25T03:28:37;97499.06;;;4.95;75.75
78317;BME280;67572;50.930;18.276;2024-03-25T03:31:39;97493.22;;;5.03;76.59
78317;BME280;67572;50.930;18.276;2024-03-25T03:34:41;97493.63;;;4.85;78.08
78317;BME280;67572;50.930;18.276;2024-03-25T03:37:43;97503.22;;;4.61;78.93
78317;BME280;67572;50.930;18.276;2024-03-25T03:40:59;97500.75;;;4.47;80.67
78317;BME280;67572;50.930;18.276;2024-03-25T03:44:00;97509.38;;;4.36;81.98
78317;BME280;67572;50.930;18.276;2024-03-25T03:47:03;97501.81;;;3.93;83.47
78317;BME280;67572;50.930;18.276;2024-03-25T03:50:06;97502.88;;;4.03;85.43
78317;BME280;67572;50.930;18.276;2024-03-25T03:53:09;97503.59;;;4.05;85.88
78317;BME280;67572;50.930;18.276;2024-03-25T03:56:11;97494.84;;;4.30;85.77
78317;BME280;67572;50.930;18.276;2024-03-25T03:59:13;97500.41;;;4.64;84.86
78317;BME280;67572;50.930;18.276;2024-03-25T04:02:16;97495.53;;;4.70;83.77
78317;BME280;67572;50.930;18.276;2024-03-25T04:05:17;97494.44;;;4.86;83.78
78317;BME280;67572;50.930;18.276;2024-03-25T04:08:20;97489.97;;;4.62;83.37
78317;BME280;67572;50.930;18.276;2024-03-25T04:11:22;97493.38;;;4.88;83.64
78317;BME280;67572;50.930;18.276;2024-03-25T04:14:23;97495.53;;;5.07;83.92
78317;BME280;67572;50.930;18.276;2024-03-25T04:17:25;97502.25;;;4.87;84.44
78317;BME280;67572;50.930;18.276;2024-03-25T04:20:27;97502.06;;;4.78;84.75
78317;BME280;67572;50.930;18.276;2024-03-25T04:23:30;97502.38;;;4.73;84.59
78317;BME280;67572;50.930;18.276;2024-03-25T04:26:31;97501.16;;;4.90;85.07
78317;BME280;67572;50.930;18.276;2024-03-25T04:29:34;97502.84;;;4.91;85.22
78317;BME280;67572;50.930;18.276;2024-03-25T04:32:36;97511.59;;;4.55;85.31
78317;BME280;67572;50.930;18.276;2024-03-25T04:35:38;97500.75;;;4.34;87.68
78317;BME280;67572;50.930;18.276;2024-03-25T04:38:41;97515.47;;;4.36;87.72
78317;BME280;67572;50.930;18.276;2024-03-25T04:41:42;97512.44;;;4.42;88.69
78317;BME280;67572;50.930;18.276;2024-03-25T04:44:44;97515.66;;;4.59;88.83
78317;BME280;67572;50.930;18.276;2024-03-25T04:47:45;97514.13;;;4.31;89.50
78317;BME280;67572;50.930;18.276;2024-03-25T04:50:47;97513.72;;;4.24;90.13
78317;BME280;67572;50.930;18.276;2024-03-25T04:53:48;97509.78;;;4.55;90.58
78317;BME280;67572;50.930;18.276;2024-03-25T04:56:49;97512.28;;;4.69;90.22
78317;BME280;67572;50.930;18.276;2024-03-25T04:59:52;97501.66;;;4.58;90.13
78317;BME280;67572;50.930;18.276;2024-03-25T05:02:54;97521.03;;;4.57;89.86
78317;BME280;67572;50.930;18.276;2024-03-25T05:05:55;97523.00;;;4.92;89.46
78317;BME280;67572;50.930;18.276;2024-03-25T05:08:57;97518.16;;;4.73;88.87
78317;BME280;67572;50.930;18.276;2024-03-25T05:11:58;97524.81;;;4.53;90.21
78317;BME280;67572;50.930;18.276;2024-03-25T05:15:00;97530.25;;;4.76;90.63
78317;BME280;67572;50.930;18.276;2024-03-25T05:18:01;97528.16;;;4.68;90.53
78317;BME280;67572;50.930;18.276;2024-03-25T05:21:02;97532.09;;;4.62;91.11
78317;BME280;67572;50.930;18.276;2024-03-25T05:24:04;97529.84;;;4.82;90.85
78317;BME280;67572;50.930;18.276;2024-03-25T05:27:05;97525.09;;;5.23;89.45
78317;BME280;67572;50.930;18.276;2024-03-25T05:30:07;97529.53;;;4.86;88.71
78317;BME280;67572;50.930;18.276;2024-03-25T05:33:08;97533.25;;;4.71;90.68
78317;BME280;67572;50.930;18.276;2024-03-25T05:36:10;97538.69;;;4.81;90.59
78317;BME280;67572;50.930;18.276;2024-03-25T05:39:11;97539.50;;;4.94;90.25
78317;BME280;67572;50.930;18.276;2024-03-25T05:42:13;97544.38;;;5.24;89.49
78317;BME280;67572;50.930;18.276;2024-03-25T05:45:15;97538.00;;;5.39;89.33
78317;BME280;67572;50.930;18.276;2024-03-25T05:48:16;97542.06;;;5.19;89.62
78317;BME280;67572;50.930;18.276;2024-03-25T05:51:18;97546.78;;;4.90;90.30
78317;BME280;67572;50.930;18.276;2024-03-25T05:54:20;97556.03;;;4.96;91.42
78317;BME280;67572;50.930;18.276;2024-03-25T05:57:21;97567.75;;;4.92;91.55
78317;BME280;67572;50.930;18.276;2024-03-25T06:00:23;97562.06;;;4.85;92.18
78317;BME280;67572;50.930;18.276;2024-03-25T06:03:24;97561.38;;;4.45;92.97
78317;BME280;67572;50.930;18.276;2024-03-25T06:06:25;97573.56;;;4.59;94.34
78317;BME280;67572;50.930;18.276;2024-03-25T06:09:27;97584.41;;;4.16;94.78
78317;BME280;67572;50.930;18.276;2024-03-25T06:12:28;97583.25;;;4.45;95.63
78317;BME280;67572;50.930;18.276;2024-03-25T06:15:30;97575.88;;;4.38;95.22
78317;BME280;67572;50.930;18.276;2024-03-25T06:18:31;97578.41;;;4.52;94.31
78317;BME280;67572;50.930;18.276;2024-03-25T06:21:33;97579.69;;;4.72;92.82
78317;BME280;67572;50.930;18.276;2024-03-25T06:24:34;97588.06;;;4.90;92.36
78317;BME280;67572;50.930;18.276;2024-03-25T06:27:36;97584.00;;;5.22;90.33
78317;BME280;67572;50.930;18.276;2024-03-25T06:30:37;97588.63;;;5.32;89.85
78317;BME280;67572;50.930;18.276;2024-03-25T06:33:57;97583.91;;;5.48;89.21
78317;BME280;67572;50.930;18.276;2024-03-25T06:37:16;97586.03;;;5.43;88.26
78317;BME280;67572;50.930;18.276;2024-03-25T06:40:18;97585.59;;;5.73;88.94
78317;BME280;67572;50.930;18.276;2024-03-25T06:43:21;97588.47;;;5.46;88.61
78317;BME280;67572;50.930;18.276;2024-03-25T06:46:22;97598.06;;;5.47;90.01
78317;BME280;67572;50.930;18.276;2024-03-25T06:49:24;97597.47;;;5.67;88.79
78317;BME280;67572;50.930;18.276;2024-03-25T06:52:25;97595.25;;;5.85;88.29
78317;BME280;67572;50.930;18.276;2024-03-25T06:55:26;97598.50;;;6.13;87.55
78317;BME280;67572;50.930;18.276;2024-03-25T06:58:28;97599.56;;;5.86;88.00
78317;BME280;67572;50.930;18.276;2024-03-25T07:01:30;97602.63;;;5.93;89.94
78317;BME280;67572;50.930;18.276;2024-03-25T07:04:31;97602.94;;;5.88;90.61
78317;BME280;67572;50.930;18.276;2024-03-25T07:07:33;97606.94;;;5.94;89.57
78317;BME280;67572;50.930;18.276;2024-03-25T07:10:34;97612.72;;;5.99;90.04
78317;BME280;67572;50.930;18.276;2024-03-25T07:13:36;97618.88;;;6.10;90.55
78317;BME280;67572;50.930;18.276;2024-03-25T07:16:37;97623.44;;;6.08;90.31
78317;BME280;67572;50.930;18.276;2024-03-25T07:19:39;97620.34;;;6.15;91.44
78317;BME280;67572;50.930;18.276;2024-03-25T07:22:40;97626.63;;;6.01;91.72
78317;BME280;67572;50.930;18.276;2024-03-25T07:25:41;97622.97;;;6.61;90.28
78317;BME280;67572;50.930;18.276;2024-03-25T07:28:43;97625.56;;;6.27;89.74
78317;BME280;67572;50.930;18.276;2024-03-25T07:31:44;97630.09;;;6.25;90.92
78317;BME280;67572;50.930;18.276;2024-03-25T07:34:45;97632.13;;;6.22;91.79
78317;BME280;67572;50.930;18.276;2024-03-25T07:37:47;97636.63;;;6.44;91.76
78317;BME280;67572;50.930;18.276;2024-03-25T07:40:48;97630.00;;;6.03;92.03
78317;BME280;67572;50.930;18.276;2024-03-25T07:43:50;97643.28;;;6.25;93.04
78317;BME280;67572;50.930;18.276;2024-03-25T07:46:51;97632.75;;;6.01;92.28
78317;BME280;67572;50.930;18.276;2024-03-25T07:49:53;97646.75;;;5.91;93.19
78317;BME280;67572;50.930;18.276;2024-03-25T07:52:54;97648.75;;;5.50;93.19
78317;BME280;67572;50.930;18.276;2024-03-25T07:55:56;97669.06;;;5.37;94.86
78317;BME280;67572;50.930;18.276;2024-03-25T07:58:58;97673.16;;;4.52;95.17
78317;BME280;67572;50.930;18.276;2024-03-25T08:01:59;97678.25;;;4.55;95.64
78317;BME280;67572;50.930;18.276;2024-03-25T08:05:00;97679.06;;;4.43;95.49
78317;BME280;67572;50.930;18.276;2024-03-25T08:08:02;97681.09;;;4.65;95.98
78317;BME280;67572;50.930;18.276;2024-03-25T08:11:04;97686.88;;;4.83;96.21
78317;BME280;67572;50.930;18.276;2024-03-25T08:14:05;97675.28;;;4.98;96.84
78317;BME280;67572;50.930;18.276;2024-03-25T08:17:06;97681.41;;;4.98;97.45
78317;BME280;67572;50.930;18.276;2024-03-25T08:20:08;97683.72;;;5.03;96.01
78317;BME280;67572;50.930;18.276;2024-03-25T08:23:10;97685.94;;;5.09;96.68
78317;BME280;67572;50.930;18.276;2024-03-25T08:26:12;97684.31;;;5.45;96.39
78317;BME280;67572;50.930;18.276;2024-03-25T08:29:13;97690.63;;;5.55;95.58
78317;BME280;67572;50.930;18.276;2024-03-25T08:32:15;97690.19;;;5.48;95.89
78317;BME280;67572;50.930;18.276;2024-03-25T08:35:16;97695.34;;;5.99;96.22
78317;BME280;67572;50.930;18.276;2024-03-25T08:38:18;97691.75;;;5.64;95.82
78317;BME280;67572;50.930;18.276;2024-03-25T08:41:19;97690.19;;;5.61;95.88
78317;BME280;67572;50.930;18.276;2024-03-25T08:44:21;97695.03;;;5.67;95.16
78317;BME280;67572;50.930;18.276;2024-03-25T08:47:23;97696.56;;;5.82;95.40
78317;BME280;67572;50.930;18.276;2024-03-25T08:50:25;97708.97;;;5.44;95.76
78317;BME280;67572;50.930;18.276;2024-03-25T08:53:26;97718.53;;;5.57;97.78
78317;BME280;67572;50.930;18.276;2024-03-25T08:56:27;97725.72;;;5.55;98.66
78317;BME280;67572;50.930;18.276;2024-03-25T08:59:31;97729.63;;;5.50;98.91
78317;BME280;67572;50.930;18.276;2024-03-25T09:02:33;97731.53;;;5.48;99.97
78317;BME280;67572;50.930;18.276;2024-03-25T09:05:34;97732.53;;;5.21;100.00
78317;BME280;67572;50.930;18.276;2024-03-25T09:08:36;97739.75;;;5.56;100.00
78317;BME280;67572;50.930;18.276;2024-03-25T09:11:37;97732.66;;;5.69;100.00
78317;BME280;67572;50.930;18.276;2024-03-25T09:14:39;97742.25;;;5.70;99.17
78317;BME280;67572;50.930;18.276;2024-03-25T09:17:40;97744.41;;;5.52;98.94
78317;BME280;67572;50.930;18.276;2024-03-25T09:20:41;97745.97;;;5.55;98.35
78317;BME280;67572;50.930;18.276;2024-03-25T09:23:43;97749.22;;;5.71;98.08
78317;BME280;67572;50.930;18.276;2024-03-25T09:26:44;97754.22;;;5.87;99.12
78317;BME280;67572;50.930;18.276;2024-03-25T09:29:46;97761.50;;;5.96;97.67
78317;BME280;67572;50.930;18.276;2024-03-25T09:32:48;97762.88;;;6.02;95.79
78317;BME280;67572;50.930;18.276;2024-03-25T09:35:49;97770.50;;;5.94;95.22
78317;BME280;67572;50.930;18.276;2024-03-25T09:38:51;97762.00;;;6.14;96.28
78317;BME280;67572;50.930;18.276;2024-03-25T09:41:55;97772.22;;;6.19;96.36
78317;BME280;67572;50.930;18.276;2024-03-25T09:44:59;97768.78;;;6.05;94.82
78317;BME280;67572;50.930;18.276;2024-03-25T09:48:03;97776.34;;;6.10;94.85
78317;BME280;67572;50.930;18.276;2024-03-25T09:51:05;97785.31;;;6.20;95.32
78317;BME280;67572;50.930;18.276;2024-03-25T09:54:07;97785.38;;;6.55;94.13
78317;BME280;67572;50.930;18.276;2024-03-25T09:57:09;97776.72;;;6.29;93.12
78317;BME280;67572;50.930;18.276;2024-03-25T10:00:13;97787.03;;;6.32;93.45
78317;BME280;67572;50.930;18.276;2024-03-25T10:03:17;97776.38;;;6.34;92.54
78317;BME280;67572;50.930;18.276;2024-03-25T10:06:18;97783.97;;;6.38;91.83
78317;BME280;67572;50.930;18.276;2024-03-25T10:09:20;97786.88;;;6.47;92.43
78317;BME280;67572;50.930;18.276;2024-03-25T10:12:22;97789.09;;;6.53;91.31
78317;BME280;67572;50.930;18.276;2024-03-25T10:15:23;97786.25;;;6.67;93.11
78317;BME280;67572;50.930;18.276;2024-03-25T10:18:25;97788.81;;;6.45;91.53
78317;BME280;67572;50.930;18.276;2024-03-25T10:21:27;97790.72;;;6.43;91.51
78317;BME280;67572;50.930;18.276;2024-03-25T10:24:39;97806.63;;;5.68;93.22
78317;BME280;67572;50.930;18.276;2024-03-25T10:27:41;97809.25;;;5.68;94.24
78317;BME280;67572;50.930;18.276;2024-03-25T10:30:42;97804.69;;;5.82;95.18
78317;BME280;67572;50.930;18.276;2024-03-25T10:33:44;97817.06;;;5.69;94.96
78317;BME280;67572;50.930;18.276;2024-03-25T10:36:46;97808.19;;;5.70;95.88
78317;BME280;67572;50.930;18.276;2024-03-25T10:39:49;97812.47;;;5.97;95.96
78317;BME280;67572;50.930;18.276;2024-03-25T10:42:51;97811.84;;;6.06;96.06
78317;BME280;67572;50.930;18.276;2024-03-25T10:45:55;97809.22;;;5.93;95.41
78317;BME280;67572;50.930;18.276;2024-03-25T10:49:29;97815.88;;;5.99;95.90
78317;BME280;67572;50.930;18.276;2024-03-25T10:52:34;97813.78;;;6.28;96.96
78317;BME280;67572;50.930;18.276;2024-03-25T10:55:37;97811.66;;;6.33;96.27
78317;BME280;67572;50.930;18.276;2024-03-25T10:58:39;97814.97;;;6.72;96.38
78317;BME280;67572;50.930;18.276;2024-03-25T11:01:41;97800.53;;;7.00;92.98
78317;BME280;67572;50.930;18.276;2024-03-25T11:04:43;97807.88;;;6.96;90.37
78317;BME280;67572;50.930;18.276;2024-03-25T11:07:46;97796.28;;;6.86;90.85
78317;BME280;67572;50.930;18.276;2024-03-25T11:10:47;97801.03;;;6.70;92.63
78317;BME280;67572;50.930;18.276;2024-03-25T11:13:49;97809.75;;;6.59;94.02
78317;BME280;67572;50.930;18.276;2024-03-25T11:16:54;97807.97;;;6.59;93.83
78317;BME280;67572;50.930;18.276;2024-03-25T11:20:16;97808.00;;;6.71;94.60
78317;BME280;67572;50.930;18.276;2024-03-25T11:23:17;97812.31;;;6.95;93.22
78317;BME280;67572;50.930;18.276;2024-03-25T11:26:20;97811.63;;;7.16;92.27
78317;BME280;67572;50.930;18.276;2024-03-25T11:29:22;97812.25;;;7.19;92.22
78317;BME280;67572;50.930;18.276;2024-03-25T11:32:24;97814.25;;;7.51;91.11
78317;BME280;67572;50.930;18.276;2024-03-25T11:35:27;97803.78;;;8.05;91.20
78317;BME280;67572;50.930;18.276;2024-03-25T11:38:29;97805.72;;;7.70;89.41
78317;BME280;67572;50.930;18.276;2024-03-25T11:41:34;97810.03;;;7.93;87.12
78317;BME280;67572;50.930;18.276;2024-03-25T11:44:37;97811.97;;;7.91;86.12
78317;BME280;67572;50.930;18.276;2024-03-25T11:47:39;97798.00;;;8.12;87.29
78317;BME280;67572;50.930;18.276;2024-03-25T11:50:41;97804.25;;;8.11;85.07
78317;BME280;67572;50.930;18.276;2024-03-25T11:53:43;97804.69;;;8.49;86.34
78317;BME280;67572;50.930;18.276;2024-03-25T11:56:44;97796.97;;;8.46;83.61
78317;BME280;67572;50.930;18.276;2024-03-25T11:59:47;97808.97;;;7.73;83.12
78317;BME280;67572;50.930;18.276;2024-03-25T12:02:49;97803.91;;;7.82;83.61
78317;BME280;67572;50.930;18.276;2024-03-25T12:05:55;97805.69;;;7.47;83.63
78317;BME280;67572;50.930;18.276;2024-03-25T12:08:56;97808.94;;;7.51;81.71
78317;BME280;67572;50.930;18.276;2024-03-25T12:12:16;97811.00;;;7.59;81.10
78317;BME280;67572;50.930;18.276;2024-03-25T12:15:18;97804.34;;;8.54;77.41
78317;BME280;67572;50.930;18.276;2024-03-25T12:18:20;97809.53;;;8.76;77.04
78317;BME280;67572;50.930;18.276;2024-03-25T12:21:22;97809.78;;;8.19;78.72
78317;BME280;67572;50.930;18.276;2024-03-25T12:24:24;97812.78;;;8.14;78.29
78317;BME280;67572;50.930;18.276;2024-03-25T12:27:27;97805.19;;;8.43;77.89
78317;BME280;67572;50.930;18.276;2024-03-25T12:30:28;97809.78;;;8.19;76.81
78317;BME280;67572;50.930;18.276;2024-03-25T12:33:42;97807.19;;;8.62;75.28
78317;BME280;67572;50.930;18.276;2024-03-25T12:36:44;97815.69;;;8.77;75.25
78317;BME280;67572;50.930;18.276;2024-03-25T12:39:49;97819.16;;;8.34;77.74
78317;BME280;67572;50.930;18.276;2024-03-25T12:42:54;97836.91;;;6.24;83.18
78317;BME280;67572;50.930;18.276;2024-03-25T12:45:56;97852.19;;;5.82;86.39
78317;BME280;67572;50.930;18.276;2024-03-25T12:48:58;97858.81;;;6.14;86.13
78317;BME280;67572;50.930;18.276;2024-03-25T12:51:59;97855.84;;;6.42;89.15
78317;BME280;67572;50.930;18.276;2024-03-25T12:55:01;97850.97;;;7.32;86.12
78317;BME280;67572;50.930;18.276;2024-03-25T12:58:03;97854.03;;;6.79;84.70
78317;BME280;67572;50.930;18.276;2024-03-25T13:01:07;97857.59;;;6.67;86.24
78317;BME280;67572;50.930;18.276;2024-03-25T13:04:11;97869.59;;;6.34;85.44
78317;BME280;67572;50.930;18.276;2024-03-25T13:07:13;97878.63;;;5.81;86.85
78317;BME280;67572;50.930;18.276;2024-03-25T13:10:14;97872.97;;;5.74;89.62
78317;BME280;67572;50.930;18.276;2024-03-25T13:13:16;97863.88;;;6.40;92.22
78317;BME280;67572;50.930;18.276;2024-03-25T13:16:17;97871.19;;;7.09;89.75
78317;BME280;67572;50.930;18.276;2024-03-25T13:19:19;97866.56;;;7.92;88.66
78317;BME280;67572;50.930;18.276;2024-03-25T13:22:20;97862.00;;;8.28;84.31
78317;BME280;67572;50.930;18.276;2024-03-25T13:25:21;97862.63;;;8.54;85.03
78317;BME280;67572;50.930;18.276;2024-03-25T13:28:22;97859.63;;;8.36;82.93
78317;BME280;67572;50.930;18.276;2024-03-25T13:31:24;97859.63;;;8.25;84.09
78317;BME280;67572;50.930;18.276;2024-03-25T13:34:26;97853.78;;;8.65;83.32
78317;BME280;67572;50.930;18.276;2024-03-25T13:37:27;97855.31;;;8.78;82.37
78317;BME280;67572;50.930;18.276;2024-03-25T13:40:28;97859.78;;;9.10;82.11
78317;BME280;67572;50.930;18.276;2024-03-25T13:43:30;97855.69;;;9.06;81.37
78317;BME280;67572;50.930;18.276;2024-03-25T13:46:31;97857.63;;;8.72;80.69
78317;BME280;67572;50.930;18.276;2024-03-25T13:49:36;97853.69;;;8.55;82.79
78317;BME280;67572;50.930;18.276;2024-03-25T13:52:37;97858.03;;;8.45;82.96
78317;BME280;67572;50.930;18.276;2024-03-25T13:55:39;97875.84;;;7.98;82.97
78317;BME280;67572;50.930;18.276;2024-03-25T13:58:40;97873.69;;;7.92;82.16
78317;BME280;67572;50.930;18.276;2024-03-25T14:01:41;97873.13;;;7.42;80.35
78317;BME280;67572;50.930;18.276;2024-03-25T14:04:43;97882.09;;;7.28;80.89
78317;BME280;67572;50.930;18.276;2024-03-25T14:07:44;97887.06;;;7.09;83.42
78317;BME280;67572;50.930;18.276;2024-03-25T14:10:45;97894.72;;;6.77;85.58
78317;BME280;67572;50.930;18.276;2024-03-25T14:13:47;97900.25;;;6.37;87.59
78317;BME280;67572;50.930;18.276;2024-03-25T14:16:48;97899.84;;;6.30;89.44
78317;BME280;67572;50.930;18.276;2024-03-25T14:19:53;97911.28;;;6.05;86.89
78317;BME280;67572;50.930;18.276;2024-03-25T14:22:56;97899.31;;;6.25;86.63
78317;BME280;67572;50.930;18.276;2024-03-25T14:25:58;97901.47;;;7.05;84.08
78317;BME280;67572;50.930;18.276;2024-03-25T14:29:01;97903.91;;;7.54;82.62
78317;BME280;67572;50.930;18.276;2024-03-25T14:32:03;97899.78;;;8.07;82.32
78317;BME280;67572;50.930;18.276;2024-03-25T14:35:05;97903.16;;;7.98;83.14
78317;BME280;67572;50.930;18.276;2024-03-25T14:38:07;97916.31;;;7.54;84.98
78317;BME280;67572;50.930;18.276;2024-03-25T14:41:11;97916.50;;;7.39;86.92
78317;BME280;67572;50.930;18.276;2024-03-25T14:44:12;97922.47;;;7.30;89.16
78317;BME280;67572;50.930;18.276;2024-03-25T14:47:14;97919.97;;;7.05;84.89
78317;BME280;67572;50.930;18.276;2024-03-25T14:50:16;97908.31;;;7.31;84.17
78317;BME280;67572;50.930;18.276;2024-03-25T14:53:17;97905.25;;;7.48;84.08
78317;BME280;67572;50.930;18.276;2024-03-25T14:56:19;97917.72;;;7.46;84.41
78317;BME280;67572;50.930;18.276;2024-03-25T14:59:20;97926.09;;;7.29;85.33
78317;BME280;67572;50.930;18.276;2024-03-25T15:02:21;97924.34;;;6.93;86.36
78317;BME280;67572;50.930;18.276;2024-03-25T15:05:23;97924.97;;;6.73;86.65
78317;BME280;67572;50.930;18.276;2024-03-25T15:08:24;97938.00;;;6.87;88.45
78317;BME280;67572;50.930;18.276;2024-03-25T15:11:26;97941.75;;;6.72;91.26
78317;BME280;67572;50.930;18.276;2024-03-25T15:14:28;97944.47;;;6.46;90.86
78317;BME280;67572;50.930;18.276;2024-03-25T15:17:30;97944.34;;;6.48;90.72
78317;BME280;67572;50.930;18.276;2024-03-25T15:20:31;97935.31;;;6.26;89.47
78317;BME280;67572;50.930;18.276;2024-03-25T15:23:33;97932.97;;;6.71;86.51
78317;BME280;67572;50.930;18.276;2024-03-25T15:26:34;97930.47;;;6.70;83.98
78317;BME280;67572;50.930;18.276;2024-03-25T15:29:36;97933.50;;;6.76;83.91
78317;BME280;67572;50.930;18.276;2024-03-25T15:32:37;97939.03;;;6.73;83.14
78317;BME280;67572;50.930;18.276;2024-03-25T15:35:38;97944.66;;;6.92;83.52
78317;BME280;67572;50.930;18.276;2024-03-25T15:38:40;97949.31;;;6.89;83.03
78317;BME280;67572;50.930;18.276;2024-03-25T15:41:41;97955.97;;;6.58;84.86
78317;BME280;67572;50.930;18.276;2024-03-25T15:44:42;97961.19;;;6.21;85.79
78317;BME280;67572;50.930;18.276;2024-03-25T15:47:44;97959.50;;;6.20;88.43
78317;BME280;67572;50.930;18.276;2024-03-25T15:50:46;97971.00;;;6.19;91.50
78317;BME280;67572;50.930;18.276;2024-03-25T15:53:47;97974.91;;;6.26;93.28
78317;BME280;67572;50.930;18.276;2024-03-25T15:56:48;97971.53;;;6.37;95.01
78317;BME280;67572;50.930;18.276;2024-03-25T15:59:50;97966.13;;;6.26;93.93
78317;BME280;67572;50.930;18.276;2024-03-25T16:02:51;97968.41;;;6.68;93.18
78317;BME280;67572;50.930;18.276;2024-03-25T16:05:53;97965.25;;;6.87;90.79